Time;durP1;ratioP1;P1;durP2;ratioP2;P2;SDS_P1;SDS_P2;PMS_P1;PMS_P2;Temp;Humidity;BMP_temperature;BMP_pressure;BME280_temperature;BME280_humidity;BME280_pressure;Samples;Min_cycle;Max_cycle;Signal;HPM_P1;HPM_P2
2022/02/26 00:00:58;;;;;;;4.18;1.70;;;3.90;71.10;;;;;;4937440;28;20126;-68
2022/02/26 00:03:23;;;;;;;4.80;1.65;;;3.90;71.10;;;;;;4937935;28;20039;-67
2022/02/26 00:05:49;;;;;;;3.88;1.70;;;3.90;71.00;;;;;;4938323;28;20499;-67
2022/02/26 00:08:15;;;;;;;5.80;1.85;;;3.90;70.90;;;;;;4938041;28;20039;-67
2022/02/26 00:10:41;;;;;;;4.05;1.98;;;4.00;71.00;;;;;;4937374;28;20050;-67
2022/02/26 00:13:06;;;;;;;4.82;1.80;;;4.00;71.00;;;;;;4938690;28;20059;-67
2022/02/26 00:15:32;;;;;;;5.40;1.95;;;4.00;71.00;;;;;;4938220;28;20126;-67
2022/02/26 00:17:58;;;;;;;4.47;1.73;;;4.00;71.00;;;;;;4937335;28;20036;-68
2022/02/26 00:20:23;;;;;;;6.43;1.65;;;4.00;70.90;;;;;;4937681;28;20554;-67
2022/02/26 00:22:49;;;;;;;4.40;1.77;;;4.00;70.80;;;;;;4936927;28;20035;-66
2022/02/26 00:25:15;;;;;;;5.40;2.20;;;4.00;70.70;;;;;;4936398;28;20519;-67
2022/02/26 00:27:41;;;;;;;4.93;2.08;;;4.00;70.60;;;;;;4937107;28;20118;-67
2022/02/26 00:30:07;;;;;;;4.72;1.90;;;4.00;70.80;;;;;;4935627;28;20463;-67
2022/02/26 00:32:32;;;;;;;4.38;1.75;;;4.00;70.80;;;;;;4937913;28;20028;-68
2022/02/26 00:34:58;;;;;;;3.58;1.60;;;4.00;70.80;;;;;;4937921;28;20046;-68
2022/02/26 00:37:24;;;;;;;4.93;1.48;;;4.00;70.80;;;;;;4936952;28;20035;-68
2022/02/26 00:39:49;;;;;;;3.53;1.70;;;4.00;70.80;;;;;;4937227;28;20035;-66
2022/02/26 00:42:15;;;;;;;4.30;1.77;;;4.00;70.80;;;;;;4943939;28;20044;-67
2022/02/26 00:44:41;;;;;;;6.55;2.05;;;4.00;71.00;;;;;;4939027;28;20049;-67
2022/02/26 00:47:08;;;;;;;4.88;1.67;;;4.00;71.80;;;;;;4938782;28;20050;-68
2022/02/26 00:49:49;;;;;;;7.78;1.70;;;4.00;70.90;;;;;;4940416;28;20048;-67
2022/02/26 00:52:20;;;;;;;9.23;2.63;;;4.00;70.80;;;;;;4940414;28;20042;-67
2022/02/26 00:54:46;;;;;;;6.93;2.60;;;4.00;70.80;;;;;;4941949;28;20050;-67
2022/02/26 00:57:13;;;;;;;5.05;2.00;;;4.10;71.00;;;;;;4940277;28;20036;-66
2022/02/26 00:59:38;;;;;;;7.65;2.47;;;4.00;71.00;;;;;;4940482;28;20027;-67
2022/02/26 01:02:06;;;;;;;4.53;1.98;;;4.00;71.20;;;;;;4939741;28;20625;-67
2022/02/26 01:04:32;;;;;;;4.53;1.65;;;4.00;71.20;;;;;;4940242;28;20050;-67
2022/02/26 01:06:58;;;;;;;4.68;1.60;;;4.00;71.20;;;;;;4940461;28;20033;-67
2022/02/26 01:09:23;;;;;;;4.38;1.70;;;3.90;71.20;;;;;;4939618;28;20042;-67
2022/02/26 01:11:49;;;;;;;5.95;1.70;;;3.90;71.30;;;;;;4939864;28;20055;-67
2022/02/26 01:14:15;;;;;;;4.30;1.80;;;3.90;71.30;;;;;;4941137;28;20066;-67
2022/02/26 01:16:41;;;;;;;3.88;1.75;;;3.90;71.50;;;;;;4941902;28;20387;-67
2022/02/26 01:19:07;;;;;;;3.97;1.95;;;3.80;71.70;;;;;;4939159;28;20050;-67
2022/02/26 01:21:32;;;;;;;6.68;2.47;;;3.90;71.90;;;;;;4939746;28;20051;-67
2022/02/26 01:23:59;;;;;;;5.80;2.08;;;3.80;72.10;;;;;;4938316;28;20040;-68
2022/02/26 01:26:25;;;;;;;4.75;2.25;;;3.80;72.20;;;;;;4939527;28;20051;-67
2022/02/26 01:28:50;;;;;;;5.20;2.50;;;3.80;72.50;;;;;;4939167;28;20487;-67
2022/02/26 01:31:16;;;;;;;5.63;2.33;;;3.80;72.60;;;;;;4939463;28;20040;-67
2022/02/26 01:33:42;;;;;;;8.82;3.28;;;3.70;72.70;;;;;;4939575;28;20567;-67
2022/02/26 01:36:08;;;;;;;6.45;2.80;;;3.70;73.10;;;;;;4938067;28;20043;-67
2022/02/26 01:38:34;;;;;;;7.93;2.40;;;3.70;73.10;;;;;;4938992;28;20039;-67
2022/02/26 01:41:00;;;;;;;5.35;2.45;;;3.70;73.30;;;;;;4937457;28;20054;-67
2022/02/26 01:43:26;;;;;;;4.68;2.53;;;3.80;73.40;;;;;;4938660;28;20507;-68
2022/02/26 01:45:52;;;;;;;4.97;2.42;;;3.80;73.40;;;;;;4938747;28;20070;-67
2022/02/26 01:48:18;;;;;;;5.10;2.30;;;3.70;73.40;;;;;;4938845;28;20115;-65
2022/02/26 01:50:45;;;;;;;5.72;2.33;;;3.70;73.40;;;;;;4937996;28;20533;-68
2022/02/26 01:53:11;;;;;;;4.40;2.67;;;3.70;73.50;;;;;;4938434;28;20071;-67
2022/02/26 01:55:37;;;;;;;7.95;2.42;;;3.70;73.40;;;;;;4939329;28;20036;-67
2022/02/26 01:58:04;;;;;;;6.05;2.50;;;3.70;73.40;;;;;;4938678;28;20079;-67
2022/02/26 02:00:29;;;;;;;3.92;2.17;;;3.70;73.30;;;;;;4940690;28;20035;-67
2022/02/26 02:02:57;;;;;;;8.40;2.40;;;3.60;73.20;;;;;;4940244;28;20035;-67
2022/02/26 02:05:26;;;;;;;5.70;2.58;;;3.70;73.10;;;;;;4939233;28;20058;-68
2022/02/26 02:07:52;;;;;;;5.80;2.70;;;3.60;72.70;;;;;;4940053;28;20054;-67
2022/02/26 02:10:18;;;;;;;5.28;2.63;;;3.60;72.60;;;;;;4942397;28;20395;-68
2022/02/26 02:12:44;;;;;;;5.00;2.30;;;3.60;72.60;;;;;;4937690;28;20046;-67
2022/02/26 02:15:09;;;;;;;6.47;2.70;;;3.50;72.60;;;;;;4939653;28;20031;-68
2022/02/26 02:17:35;;;;;;;4.80;2.50;;;3.40;72.50;;;;;;4940584;28;20039;-68
2022/02/26 02:20:01;;;;;;;6.90;2.75;;;3.40;72.50;;;;;;4940664;28;20043;-67
2022/02/26 02:22:26;;;;;;;4.60;2.80;;;3.40;72.50;;;;;;4940335;28;20803;-68
2022/02/26 02:24:52;;;;;;;5.43;2.45;;;3.30;72.60;;;;;;4939854;28;20051;-68
2022/02/26 02:27:18;;;;;;;13.48;4.65;;;3.30;72.70;;;;;;4938613;28;20046;-67
2022/02/26 02:29:44;;;;;;;8.73;3.65;;;3.30;72.60;;;;;;4941705;28;20032;-68
2022/02/26 02:32:10;;;;;;;15.75;5.57;;;3.20;72.70;;;;;;4939303;28;20419;-66
2022/02/26 02:34:36;;;;;;;12.60;5.05;;;3.20;72.70;;;;;;4939786;28;20035;-68
2022/02/26 02:37:02;;;;;;;8.30;3.53;;;3.20;72.90;;;;;;4940227;28;20035;-67
2022/02/26 02:39:28;;;;;;;8.65;3.03;;;3.20;73.00;;;;;;4939213;28;20067;-67
2022/02/26 02:41:54;;;;;;;5.95;2.78;;;3.20;73.10;;;;;;4940272;28;20769;-67
2022/02/26 02:44:20;;;;;;;7.07;2.92;;;3.20;73.20;;;;;;4937471;28;20035;-67
2022/02/26 02:46:45;;;;;;;5.03;3.30;;;3.20;73.30;;;;;;4937914;28;20450;-67
2022/02/26 02:49:12;;;;;;;6.63;3.47;;;3.20;73.40;;;;;;4937010;28;20043;-67
2022/02/26 02:51:38;;;;;;;6.30;3.10;;;3.20;73.40;;;;;;4937928;28;20040;-67
2022/02/26 02:54:04;;;;;;;5.07;2.90;;;3.20;73.60;;;;;;4936887;28;20040;-67
2022/02/26 02:56:30;;;;;;;5.85;2.92;;;3.20;73.60;;;;;;4942912;28;20059;-67
2022/02/26 02:58:56;;;;;;;4.30;2.45;;;3.20;73.60;;;;;;4937608;28;20589;-67
2022/02/26 03:01:21;;;;;;;6.70;3.00;;;3.20;74.40;;;;;;4938750;28;20525;-67
2022/02/26 03:03:47;;;;;;;4.82;2.67;;;3.30;73.60;;;;;;4939452;28;20069;-67
2022/02/26 03:06:13;;;;;;;6.88;2.83;;;3.30;73.80;;;;;;4936471;28;20054;-68
2022/02/26 03:08:38;;;;;;;5.70;2.67;;;3.30;73.80;;;;;;4939042;28;20043;-67
2022/02/26 03:11:04;;;;;;;7.18;2.83;;;3.40;73.90;;;;;;4938880;28;20047;-67
2022/02/26 03:13:30;;;;;;;5.70;2.90;;;3.40;73.90;;;;;;4938006;28;20344;-67
2022/02/26 03:15:57;;;;;;;5.20;2.83;;;3.50;74.00;;;;;;4937785;28;20495;-67
2022/02/26 03:18:24;;;;;;;4.97;2.88;;;3.50;74.00;;;;;;4944011;28;20415;-67
2022/02/26 03:20:50;;;;;;;9.70;2.85;;;3.50;74.00;;;;;;4934087;28;20058;-67
2022/02/26 03:23:16;;;;;;;5.35;2.70;;;3.50;73.90;;;;;;4935223;28;20066;-67
2022/02/26 03:25:43;;;;;;;9.57;3.85;;;3.50;73.80;;;;;;4935631;28;20031;-67
2022/02/26 03:28:08;;;;;;;8.15;3.85;;;3.60;73.80;;;;;;4936455;28;20635;-67
2022/02/26 03:30:34;;;;;;;8.68;4.07;;;3.60;73.80;;;;;;4934752;28;20047;-68
2022/02/26 03:33:00;;;;;;;8.43;4.13;;;3.60;73.60;;;;;;4934287;28;20498;-67
2022/02/26 03:35:26;;;;;;;8.70;3.95;;;3.70;73.60;;;;;;4936956;28;20047;-67
2022/02/26 03:37:52;;;;;;;7.60;3.85;;;3.70;73.60;;;;;;4934098;28;20047;-65
2022/02/26 03:40:17;;;;;;;10.55;4.15;;;3.70;73.50;;;;;;4933959;28;20038;-67
2022/02/26 03:42:43;;;;;;;9.95;3.25;;;3.70;73.60;;;;;;4934486;28;20039;-68
2022/02/26 03:45:10;;;;;;;6.75;3.50;;;3.70;73.60;;;;;;4935187;28;20066;-68
2022/02/26 03:47:36;;;;;;;8.10;3.55;;;3.80;73.70;;;;;;4937811;28;20510;-68
2022/02/26 03:50:03;;;;;;;8.45;3.28;;;3.80;73.70;;;;;;4934866;28;20054;-68
2022/02/26 03:52:29;;;;;;;8.38;3.45;;;3.80;73.60;;;;;;4935227;28;20456;-68
2022/02/26 03:54:55;;;;;;;5.68;3.50;;;3.80;73.40;;;;;;4934897;28;20031;-67
2022/02/26 03:57:21;;;;;;;6.97;3.70;;;3.80;73.40;;;;;;4937331;28;20040;-67
2022/02/26 03:59:47;;;;;;;6.40;3.47;;;3.80;73.40;;;;;;4935890;28;20562;-67
2022/02/26 04:02:13;;;;;;;5.75;3.20;;;3.90;73.40;;;;;;4935653;28;20118;-67
2022/02/26 04:04:39;;;;;;;6.18;3.03;;;3.90;73.40;;;;;;4937147;28;20443;-67
2022/02/26 04:07:05;;;;;;;6.10;3.05;;;3.90;73.50;;;;;;4937654;28;20043;-67
2022/02/26 04:09:32;;;;;;;6.55;3.30;;;3.90;73.40;;;;;;4938193;28;20032;-67
2022/02/26 04:11:57;;;;;;;6.72;3.30;;;3.90;73.40;;;;;;4934816;28;20039;-67
2022/02/26 04:14:24;;;;;;;5.82;3.00;;;3.90;73.40;;;;;;4938812;28;20034;-67
2022/02/26 04:16:50;;;;;;;5.55;3.28;;;3.90;73.40;;;;;;4939319;28;20040;-67
2022/02/26 04:19:15;;;;;;;9.45;3.30;;;3.90;73.40;;;;;;4942267;28;20095;-67
2022/02/26 04:21:41;;;;;;;6.50;2.75;;;3.90;73.40;;;;;;4939355;28;20376;-67
2022/02/26 04:24:06;;;;;;;6.10;3.08;;;3.90;73.40;;;;;;4938642;28;20048;-68
2022/02/26 04:26:32;;;;;;;4.32;2.72;;;3.90;73.30;;;;;;4938713;28;20102;-67
2022/02/26 04:28:58;;;;;;;7.88;3.40;;;3.90;73.40;;;;;;4939032;28;20039;-67
2022/02/26 04:31:24;;;;;;;8.23;3.83;;;3.90;73.40;;;;;;4940768;28;20036;-67
2022/02/26 04:33:50;;;;;;;7.40;3.70;;;4.00;73.40;;;;;;4938855;28;20066;-67
2022/02/26 04:36:16;;;;;;;7.90;3.55;;;3.90;73.40;;;;;;4938064;28;20434;-67
2022/02/26 04:38:42;;;;;;;7.30;3.75;;;3.90;73.40;;;;;;4937595;28;20522;-67
2022/02/26 04:41:08;;;;;;;7.00;3.40;;;3.90;73.50;;;;;;4936996;28;20048;-67
2022/02/26 04:43:36;;;;;;;5.20;3.58;;;3.90;73.60;;;;;;4937593;28;20035;-67
2022/02/26 04:46:01;;;;;;;5.75;3.97;;;3.90;73.70;;;;;;4940072;28;20519;-67
2022/02/26 04:48:27;;;;;;;6.40;3.80;;;3.90;73.70;;;;;;4937907;28;20034;-67
2022/02/26 04:50:53;;;;;;;9.32;4.13;;;3.90;73.80;;;;;;4939113;28;20046;-67
2022/02/26 04:53:18;;;;;;;9.80;5.20;;;3.90;74.00;;;;;;4938949;28;20039;-67
2022/02/26 04:55:44;;;;;;;11.10;5.47;;;3.90;74.00;;;;;;4937602;28;20521;-67
2022/02/26 04:58:10;;;;;;;9.38;4.82;;;3.90;73.90;;;;;;4938749;28;20687;-67
2022/02/26 05:00:36;;;;;;;9.52;4.70;;;3.80;74.00;;;;;;4937730;28;20542;-67
2022/02/26 05:03:02;;;;;;;9.13;4.60;;;3.80;74.00;;;;;;4936814;28;20113;-68
2022/02/26 05:05:28;;;;;;;7.90;4.13;;;3.90;74.00;;;;;;4938278;28;20447;-67
2022/02/26 05:07:53;;;;;;;6.85;4.05;;;3.80;74.00;;;;;;4937926;28;20056;-67
2022/02/26 05:10:19;;;;;;;8.70;4.10;;;3.80;74.00;;;;;;4935475;28;20046;-67
2022/02/26 05:12:45;;;;;;;6.00;3.88;;;3.80;74.10;;;;;;4937524;28;20031;-67
2022/02/26 05:15:11;;;;;;;5.05;3.75;;;3.80;74.20;;;;;;4938331;28;20109;-68
2022/02/26 05:17:41;;;;;;;7.32;4.07;;;3.80;74.30;;;;;;4938636;28;20078;-68
2022/02/26 05:20:08;;;;;;;5.90;4.18;;;3.80;74.50;;;;;;4939177;28;20036;-67
2022/02/26 05:22:36;;;;;;;6.90;4.13;;;3.80;74.30;;;;;;4938175;28;20043;-67
2022/02/26 05:25:07;;;;;;;7.03;4.05;;;3.80;74.30;;;;;;4936734;28;20043;-68
2022/02/26 05:27:32;;;;;;;7.60;4.00;;;3.70;74.40;;;;;;4938008;28;20032;-68
2022/02/26 05:29:58;;;;;;;9.07;4.10;;;3.70;74.40;;;;;;4937391;28;20066;-66
2022/02/26 05:32:24;;;;;;;7.43;4.45;;;3.70;74.50;;;;;;4935978;28;20032;-68
2022/02/26 05:34:52;;;;;;;8.02;4.60;;;3.70;74.60;;;;;;4939921;28;20568;-68
2022/02/26 05:37:19;;;;;;;7.93;4.40;;;3.70;74.60;;;;;;4936718;28;20570;-67
2022/02/26 05:39:45;;;;;;;7.70;4.63;;;3.70;74.60;;;;;;4938671;28;20038;-67
2022/02/26 05:42:11;;;;;;;8.48;4.63;;;3.70;74.60;;;;;;4937641;28;20039;-68
2022/02/26 05:44:37;;;;;;;8.27;4.60;;;3.70;74.60;;;;;;4937737;28;20043;-68
2022/02/26 05:47:03;;;;;;;11.82;5.68;;;3.70;74.60;;;;;;4936340;28;20428;-67
2022/02/26 05:49:28;;;;;;;11.27;5.20;;;3.70;74.70;;;;;;4939947;28;20034;-67
2022/02/26 05:51:54;;;;;;;10.75;5.18;;;3.70;74.80;;;;;;4937730;28;20604;-67
2022/02/26 05:54:20;;;;;;;9.05;4.30;;;3.60;75.00;;;;;;4939161;28;20063;-68
2022/02/26 05:56:45;;;;;;;10.65;4.72;;;3.60;75.00;;;;;;4939428;28;20051;-67
2022/02/26 05:59:11;;;;;;;10.55;4.95;;;3.60;75.00;;;;;;4939703;28;20151;-68
2022/02/26 06:01:37;;;;;;;7.72;4.72;;;3.60;75.00;;;;;;4940549;28;20053;-68
2022/02/26 06:04:02;;;;;;;9.93;4.97;;;3.60;75.20;;;;;;4941047;28;20039;-68
2022/02/26 06:06:28;;;;;;;10.77;4.90;;;3.60;75.00;;;;;;4939363;28;20063;-67
2022/02/26 06:08:54;;;;;;;10.98;4.53;;;3.60;75.20;;;;;;4939656;28;20079;-67
2022/02/26 06:11:19;;;;;;;11.80;4.63;;;3.60;75.20;;;;;;4939796;28;20050;-67
2022/02/26 06:13:45;;;;;;;7.22;4.57;;;3.60;75.10;;;;;;4939745;28;20044;-67
2022/02/26 06:16:11;;;;;;;8.57;4.38;;;3.60;75.20;;;;;;4938837;28;20108;-67
2022/02/26 06:18:37;;;;;;;10.13;5.10;;;3.60;75.20;;;;;;4939239;28;20066;-67
2022/02/26 06:21:03;;;;;;;9.27;4.90;;;3.60;75.20;;;;;;4940667;28;20038;-67
2022/02/26 06:23:29;;;;;;;9.27;4.80;;;3.60;75.10;;;;;;4939352;28;20039;-66
2022/02/26 06:25:54;;;;;;;6.97;4.38;;;3.60;75.10;;;;;;4938555;28;20071;-67
2022/02/26 06:28:20;;;;;;;12.13;4.95;;;3.60;75.10;;;;;;4935820;28;20193;-67
2022/02/26 06:30:46;;;;;;;9.27;4.55;;;3.60;75.10;;;;;;4935967;28;20044;-67
2022/02/26 06:33:13;;;;;;;7.32;4.50;;;3.60;75.00;;;;;;4937145;28;20047;-67
2022/02/26 06:35:40;;;;;;;8.10;4.68;;;3.60;75.90;;;;;;4936123;28;20027;-67
2022/02/26 06:38:06;;;;;;;11.20;5.20;;;3.70;75.20;;;;;;4935556;28;20106;-67
2022/02/26 06:40:31;;;;;;;6.50;4.63;;;3.70;75.20;;;;;;4936154;28;20031;-68
2022/02/26 06:42:58;;;;;;;10.63;4.47;;;3.70;75.00;;;;;;4935990;28;20035;-67
2022/02/26 06:45:23;;;;;;;7.13;4.40;;;3.80;75.20;;;;;;4938396;28;20039;-67
2022/02/26 06:47:49;;;;;;;9.95;4.88;;;3.80;75.00;;;;;;4937320;28;20498;-67
2022/02/26 06:50:15;;;;;;;8.10;4.93;;;3.80;74.90;;;;;;4936393;28;20068;-67
2022/02/26 06:52:40;;;;;;;7.85;5.13;;;3.90;74.90;;;;;;4936721;28;20027;-67
2022/02/26 06:55:06;;;;;;;8.10;5.10;;;3.90;74.80;;;;;;4936821;28;20042;-67
2022/02/26 06:57:32;;;;;;;9.98;5.32;;;3.90;74.70;;;;;;4935765;28;20495;-67
2022/02/26 06:59:58;;;;;;;10.15;5.18;;;4.00;74.80;;;;;;4933825;28;20032;-67
2022/02/26 07:02:24;;;;;;;8.88;5.43;;;4.00;74.70;;;;;;4935803;28;20395;-67
2022/02/26 07:04:49;;;;;;;9.52;4.75;;;4.10;74.60;;;;;;4936574;28;20494;-67
2022/02/26 07:07:15;;;;;;;9.27;4.85;;;4.10;74.50;;;;;;4938602;28;20546;-67
2022/02/26 07:09:41;;;;;;;10.48;5.18;;;4.10;74.50;;;;;;4940514;28;20028;-67
2022/02/26 07:12:07;;;;;;;11.88;5.45;;;4.20;74.50;;;;;;4937855;28;20178;-67
2022/02/26 07:14:33;;;;;;;11.70;5.72;;;4.20;74.50;;;;;;4938839;28;20114;-67
2022/02/26 07:16:58;;;;;;;10.25;5.70;;;4.30;74.50;;;;;;4940733;28;20554;-68
2022/02/26 07:19:24;;;;;;;16.00;7.78;;;4.30;74.40;;;;;;4939125;28;20036;-67
2022/02/26 07:21:50;;;;;;;27.98;11.65;;;4.30;74.40;;;;;;4937670;28;20043;-67
2022/02/26 07:24:16;;;;;;;40.85;16.60;;;4.40;74.30;;;;;;4938662;28;20180;-67
2022/02/26 07:26:41;;;;;;;24.30;11.23;;;4.40;74.30;;;;;;4938233;28;20213;-67
2022/02/26 07:29:07;;;;;;;27.02;14.95;;;4.40;74.30;;;;;;4938152;28;20106;-67
2022/02/26 07:31:33;;;;;;;25.85;14.18;;;4.50;74.30;;;;;;4937790;28;20035;-67
2022/02/26 07:33:59;;;;;;;25.42;13.23;;;4.50;74.10;;;;;;4938510;28;20046;-67
2022/02/26 07:36:24;;;;;;;14.27;8.35;;;4.50;74.00;;;;;;4926093;28;20039;-65
2022/02/26 07:38:50;;;;;;;9.68;7.28;;;4.50;74.00;;;;;;4936735;28;20035;-66
2022/02/26 07:41:16;;;;;;;13.77;6.97;;;4.50;74.00;;;;;;4932406;28;20079;-67
2022/02/26 07:43:41;;;;;;;17.10;8.25;;;4.60;74.00;;;;;;4938690;28;20118;-68
2022/02/26 07:46:07;;;;;;;13.63;7.60;;;4.60;74.00;;;;;;4937606;28;20043;-68
2022/02/26 07:48:34;;;;;;;11.10;5.85;;;4.60;73.90;;;;;;4937794;28;20039;-67
2022/02/26 07:51:00;;;;;;;9.38;5.30;;;4.70;73.80;;;;;;4932874;28;20047;-67
2022/02/26 07:53:25;;;;;;;9.88;5.38;;;4.60;73.30;;;;;;4938386;28;20044;-67
2022/02/26 07:55:52;;;;;;;11.10;5.72;;;4.60;73.00;;;;;;4945018;29;20078;-67
2022/02/26 07:58:17;;;;;;;9.75;4.97;;;4.60;72.90;;;;;;4942936;28;20051;-67
2022/02/26 08:00:43;;;;;;;11.27;5.72;;;4.60;72.70;;;;;;4942513;28;20042;-68
2022/02/26 08:03:09;;;;;;;14.73;5.53;;;4.60;72.70;;;;;;4938925;28;20047;-68
2022/02/26 08:05:35;;;;;;;11.00;5.50;;;4.60;72.90;;;;;;4941548;28;20035;-65
2022/02/26 08:08:01;;;;;;;8.77;4.82;;;4.60;72.90;;;;;;4933942;28;20063;-68
2022/02/26 08:10:27;;;;;;;14.15;5.72;;;4.60;73.00;;;;;;4934791;28;20186;-67
2022/02/26 08:12:55;;;;;;;9.50;4.85;;;4.60;73.10;;;;;;4936575;28;20032;-65
2022/02/26 08:15:23;;;;;;;12.45;5.50;;;4.60;73.20;;;;;;4936792;28;20031;-66
2022/02/26 08:17:49;;;;;;;10.80;5.00;;;4.60;73.10;;;;;;4937127;28;20831;-67
2022/02/26 08:20:17;;;;;;;10.07;5.35;;;4.60;73.00;;;;;;4938466;28;20042;-67
2022/02/26 08:22:43;;;;;;;11.40;5.30;;;4.60;72.70;;;;;;4936875;28;20065;-68
2022/02/26 08:25:09;;;;;;;14.68;5.70;;;4.60;72.70;;;;;;4941487;28;20035;-68
2022/02/26 08:27:36;;;;;;;11.15;5.40;;;4.60;72.80;;;;;;4940181;28;20414;-67
2022/02/26 08:30:04;;;;;;;11.98;5.30;;;4.70;72.80;;;;;;4939429;28;20042;-68
2022/02/26 08:32:30;;;;;;;10.68;5.28;;;4.70;72.90;;;;;;4937364;28;20114;-68
2022/02/26 08:34:55;;;;;;;10.98;5.13;;;4.70;72.70;;;;;;4937784;28;20164;-67
2022/02/26 08:37:21;;;;;;;14.02;5.30;;;4.70;72.60;;;;;;4940953;28;20027;-68
2022/02/26 08:39:46;;;;;;;12.68;5.63;;;4.70;72.60;;;;;;4940144;28;20578;-67
2022/02/26 08:42:12;;;;;;;8.85;5.18;;;4.80;72.50;;;;;;4940565;28;20031;-67
2022/02/26 08:44:38;;;;;;;12.48;5.32;;;4.80;72.60;;;;;;4938955;28;20154;-67
2022/02/26 08:47:05;;;;;;;11.63;6.28;;;4.90;72.70;;;;;;4939518;28;20032;-67
2022/02/26 08:49:30;;;;;;;12.88;5.38;;;4.90;72.60;;;;;;4941600;28;20031;-68
2022/02/26 08:51:57;;;;;;;8.95;5.28;;;5.00;72.60;;;;;;4939543;28;20585;-67
2022/02/26 08:54:22;;;;;;;10.80;5.38;;;5.00;72.50;;;;;;4940661;28;20044;-67
2022/02/26 08:56:49;;;;;;;12.18;5.65;;;5.10;72.40;;;;;;4939659;28;20094;-67
2022/02/26 08:59:14;;;;;;;12.32;5.97;;;5.10;72.50;;;;;;4939817;28;20042;-67
2022/02/26 09:01:40;;;;;;;10.50;5.60;;;5.10;72.40;;;;;;4940082;28;20047;-67
2022/02/26 09:04:07;;;;;;;9.18;5.20;;;5.20;72.50;;;;;;4939298;28;20555;-67
2022/02/26 09:06:33;;;;;;;10.35;5.03;;;5.20;72.20;;;;;;4941540;28;20410;-67
2022/02/26 09:08:59;;;;;;;11.38;5.22;;;5.20;72.00;;;;;;4940319;28;20242;-67
2022/02/26 09:11:25;;;;;;;10.55;5.45;;;5.30;71.50;;;;;;4938828;28;20051;-67
2022/02/26 09:13:51;;;;;;;12.95;5.53;;;5.30;70.90;;;;;;4939769;28;20035;-68
2022/02/26 09:16:17;;;;;;;12.57;5.40;;;5.30;71.20;;;;;;4933434;28;20036;-66
2022/02/26 09:18:43;;;;;;;13.82;5.40;;;5.30;71.20;;;;;;4936697;28;20140;-66
2022/02/26 09:21:09;;;;;;;12.00;5.57;;;5.30;70.80;;;;;;4936869;28;20791;-66
2022/02/26 09:23:36;;;;;;;11.50;5.25;;;5.30;70.60;;;;;;4935278;28;20035;-67
2022/02/26 09:26:04;;;;;;;12.30;5.35;;;5.30;70.40;;;;;;4938006;28;20036;-65
2022/02/26 09:28:32;;;;;;;10.25;5.10;;;5.30;70.40;;;;;;4936323;28;20081;-67
2022/02/26 09:30:58;;;;;;;15.30;5.30;;;5.30;70.50;;;;;;4936531;28;20134;-65
2022/02/26 09:33:23;;;;;;;14.15;4.97;;;5.30;70.40;;;;;;4936946;28;20036;-68
2022/02/26 09:35:49;;;;;;;12.98;4.97;;;5.30;70.30;;;;;;4939354;28;20123;-65
2022/02/26 09:38:15;;;;;;;11.18;4.68;;;5.40;71.20;;;;;;4934325;28;20119;-67
2022/02/26 09:40:41;;;;;;;9.02;4.40;;;5.30;70.00;;;;;;4939993;28;20037;-67
2022/02/26 09:43:07;;;;;;;10.18;3.80;;;5.40;69.80;;;;;;4939416;28;20185;-66
2022/02/26 09:45:33;;;;;;;45.90;5.20;;;5.40;69.60;;;;;;4942040;28;20067;-67
2022/02/26 09:47:59;;;;;;;11.40;4.57;;;5.40;69.50;;;;;;4940023;28;20059;-67
2022/02/26 09:50:24;;;;;;;9.15;4.05;;;5.50;69.60;;;;;;4939473;28;20042;-67
2022/02/26 09:52:51;;;;;;;9.10;4.07;;;5.50;69.60;;;;;;4939139;28;20031;-67
2022/02/26 09:55:18;;;;;;;11.10;3.90;;;5.50;69.60;;;;;;4939057;28;20074;-67
2022/02/26 09:57:44;;;;;;;8.15;3.55;;;5.60;69.40;;;;;;4940504;28;20028;-67
2022/02/26 10:00:11;;;;;;;8.75;3.97;;;5.60;69.00;;;;;;4939342;28;20035;-67
2022/02/26 10:02:43;;;;;;;9.35;3.67;;;5.70;68.60;;;;;;4939358;28;20519;-67
2022/02/26 10:05:11;;;;;;;9.20;4.78;;;5.80;68.40;;;;;;4939166;28;20087;-67
2022/02/26 10:07:39;;;;;;;9.90;4.55;;;5.80;67.90;;;;;;4939346;28;20498;-66
2022/02/26 10:10:15;;;;;;;7.13;3.83;;;5.80;68.00;;;;;;4938903;28;20049;-66
2022/02/26 10:12:41;;;;;;;8.07;4.55;;;5.90;67.90;;;;;;4937865;28;20062;-67
2022/02/26 10:15:28;;;;;;;8.95;4.50;;;5.90;68.10;;;;;;4933604;28;20624;-68
2022/02/26 10:18:11;;;;;;;9.18;4.80;;;6.00;67.70;;;;;;4939220;28;20042;-67
2022/02/26 10:21:00;;;;;;;11.63;4.75;;;6.00;67.50;;;;;;4936225;28;20046;-67
2022/02/26 10:23:25;;;;;;;8.80;3.20;;;6.00;67.40;;;;;;4936757;28;20044;-65
2022/02/26 10:25:51;;;;;;;6.35;2.53;;;6.00;67.30;;;;;;4930384;28;20028;-67
2022/02/26 10:28:17;;;;;;;6.28;2.30;;;6.10;66.00;;;;;;4938558;28;20043;-67
2022/02/26 10:30:45;;;;;;;3.65;1.95;;;6.10;66.60;;;;;;4939103;28;22398;-67
2022/02/26 10:33:25;;;;;;;5.22;1.70;;;6.10;65.30;;;;;;4938015;28;20123;-67
2022/02/26 10:35:56;;;;;;;6.60;2.00;;;6.00;64.80;;;;;;4937231;28;20040;-67
2022/02/26 10:38:27;;;;;;;6.10;1.80;;;6.00;64.40;;;;;;4940095;28;20103;-68
2022/02/26 10:41:04;;;;;;;6.60;1.80;;;6.00;64.00;;;;;;4939626;28;20051;-67
2022/02/26 10:43:43;;;;;;;6.28;1.80;;;6.00;63.70;;;;;;4936633;28;20031;-67
2022/02/26 10:46:30;;;;;;;5.65;1.98;;;6.00;62.80;;;;;;4940943;28;20046;-66
2022/02/26 10:49:13;;;;;;;8.13;1.63;;;6.00;63.10;;;;;;4938052;28;20515;-67
2022/02/26 10:51:44;;;;;;;8.98;1.90;;;6.00;62.80;;;;;;4934620;28;20584;-68
2022/02/26 10:54:21;;;;;;;6.05;1.73;;;6.00;63.50;;;;;;4936204;28;20067;-68
2022/02/26 10:56:47;;;;;;;5.95;1.70;;;6.00;63.20;;;;;;4939754;28;20046;-67
2022/02/26 10:59:36;;;;;;;7.88;1.40;;;6.00;62.50;;;;;;4937328;28;20044;-68
2022/02/26 11:02:08;;;;;;;5.22;1.70;;;6.00;60.70;;;;;;4940365;28;20047;-67
2022/02/26 11:04:35;;;;;;;5.07;1.50;;;6.00;62.10;;;;;;4939488;28;20414;-67
2022/02/26 11:07:02;;;;;;;6.70;2.42;;;6.00;62.50;;;;;;4938834;28;20044;-67
2022/02/26 11:09:28;;;;;;;6.80;2.03;;;6.00;60.60;;;;;;4937527;28;20724;-68
2022/02/26 11:11:57;;;;;;;3.28;1.75;;;6.00;61.80;;;;;;4938165;28;20131;-67
2022/02/26 11:14:24;;;;;;;4.10;1.38;;;6.10;61.60;;;;;;4938203;28;20043;-67
2022/02/26 11:16:53;;;;;;;3.00;1.77;;;6.10;61.30;;;;;;4920759;28;20451;-68
2022/02/26 11:19:20;;;;;;;3.78;1.77;;;6.20;60.90;;;;;;4918312;28;20036;-67
2022/02/26 11:21:50;;;;;;;4.13;2.45;;;6.30;60.30;;;;;;4919850;29;20161;-68
2022/02/26 11:24:17;;;;;;;3.95;1.40;;;6.40;59.70;;;;;;4925570;28;20115;-67
2022/02/26 11:26:43;;;;;;;5.30;1.63;;;6.40;58.70;;;;;;4920115;28;20051;-67
2022/02/26 11:29:10;;;;;;;5.45;1.45;;;6.60;59.30;;;;;;4918498;28;20047;-67
2022/02/26 11:32:07;;;;;;;7.20;2.97;;;6.60;59.60;;;;;;4920261;28;20658;-68
2022/02/26 11:34:37;;;;;;;4.95;1.75;;;6.60;58.20;;;;;;4932398;28;20067;-67
2022/02/26 11:37:04;;;;;;;4.10;1.42;;;6.80;59.20;;;;;;4938580;28;20067;-67
2022/02/26 11:39:37;;;;;;;5.00;1.60;;;6.80;56.20;;;;;;4937419;28;22777;-68
2022/02/26 11:42:22;;;;;;;4.68;1.63;;;6.90;57.60;;;;;;4939110;28;20430;-68
2022/02/26 11:45:01;;;;;;;4.30;1.83;;;6.90;56.00;;;;;;4938659;28;20483;-67
2022/02/26 11:47:35;;;;;;;6.10;1.73;;;6.90;57.00;;;;;;4937768;28;20031;-68
2022/02/26 11:50:14;;;;;;;7.95;2.20;;;7.00;58.00;;;;;;4937263;28;20114;-67
2022/02/26 11:52:48;;;;;;;7.38;2.60;;;7.10;56.70;;;;;;4936707;28;20062;-67
2022/02/26 11:55:25;;;;;;;6.22;2.85;;;7.10;57.10;;;;;;4938859;28;20032;-68
2022/02/26 11:57:53;;;;;;;2.90;1.75;;;7.10;57.30;;;;;;4939036;28;20465;-68
2022/02/26 12:00:22;;;;;;;6.95;1.70;;;7.20;57.90;;;;;;4938589;28;20046;-68
2022/02/26 12:03:16;;;;;;;7.20;1.63;;;7.30;57.90;;;;;;4939012;28;20046;-68
2022/02/26 12:05:42;;;;;;;8.32;2.83;;;7.30;57.60;;;;;;4939469;28;20171;-68
2022/02/26 12:08:12;;;;;;;7.22;1.75;;;7.30;57.90;;;;;;4939648;28;20802;-68
2022/02/26 12:10:51;;;;;;;10.02;1.45;;;7.40;56.70;;;;;;4936240;28;20114;-68
2022/02/26 12:13:32;;;;;;;6.07;1.60;;;7.30;55.00;;;;;;4937519;28;20032;-69
2022/02/26 12:16:37;;;;;;;8.02;2.35;;;7.10;56.00;;;;;;4938306;28;20039;-66
2022/02/26 12:19:10;;;;;;;6.07;2.27;;;7.10;55.90;;;;;;4926372;28;20055;-68
2022/02/26 12:21:45;;;;;;;8.80;2.85;;;7.10;57.20;;;;;;4937346;28;20031;-68
2022/02/26 12:24:17;;;;;;;5.45;1.65;;;7.10;56.80;;;;;;4937651;28;20102;-67
2022/02/26 12:26:47;;;;;;;6.13;1.40;;;7.10;56.00;;;;;;4938284;28;20805;-68
2022/02/26 12:29:49;;;;;;;7.18;2.95;;;7.00;56.20;;;;;;4937606;28;20032;-68
2022/02/26 12:32:17;;;;;;;10.02;2.65;;;7.00;56.40;;;;;;4935573;28;20171;-67
2022/02/26 12:34:57;;;;;;;7.05;2.13;;;7.00;57.30;;;;;;4937439;28;20040;-68
2022/02/26 12:37:29;;;;;;;6.93;2.30;;;7.00;56.30;;;;;;4938670;28;20078;-68
2022/02/26 12:40:02;;;;;;;4.75;1.52;;;7.00;56.30;;;;;;4940421;28;20055;-68
2022/02/26 12:42:31;;;;;;;3.85;1.10;;;7.00;55.90;;;;;;4941152;28;20045;-68
2022/02/26 12:44:59;;;;;;;16.40;1.70;;;7.00;56.40;;;;;;4949112;28;20093;-68
2022/02/26 12:47:28;;;;;;;5.80;1.45;;;7.00;56.80;;;;;;4942070;28;20446;-68
2022/02/26 12:49:54;;;;;;;3.42;1.05;;;7.00;56.60;;;;;;4940647;28;20039;-68
2022/02/26 12:52:20;;;;;;;4.28;1.30;;;7.00;54.30;;;;;;4942130;28;20936;-69
2022/02/26 12:54:46;;;;;;;10.05;3.90;;;7.00;55.40;;;;;;4941466;28;20043;-68
2022/02/26 12:57:13;;;;;;;6.68;1.73;;;7.00;55.80;;;;;;4941876;28;20046;-68